Time;durP1;ratioP1;P1;durP2;ratioP2;P2;SDS_P1;SDS_P2;PMS_P1;PMS_P2;Temp;Humidity;BMP_temperature;BMP_pressure;BME280_temperature;BME280_humidity;BME280_pressure;Samples;Min_cycle;Max_cycle;Signal;HPM_P1;HPM_P2
2023/04/23 00:01:54;;;;;;;;;;;;;;;13.04;52.71;99704.88;4445025;32;34198;-84
2023/04/23 00:04:21;;;;;;;;;;;;;;;12.75;53.71;99703.81;4444646;32;34135;-84
2023/04/23 00:06:49;;;;;;;;;;;;;;;12.76;53.80;99699.38;4442280;32;33204;-84
2023/04/23 00:09:17;;;;;;;;;;;;;;;12.62;54.22;99701.91;4443179;32;34079;-84
2023/04/23 00:11:45;;;;;;;;;;;;;;;12.78;53.73;99702.81;4443973;32;32617;-85
2023/04/23 00:14:13;;;;;;;;;;;;;;;12.86;53.47;99705.88;4446250;32;34937;-84
2023/04/23 00:16:41;;;;;;;;;;;;;;;12.67;54.30;99705.19;4443040;32;32322;-84
2023/04/23 00:19:09;;;;;;;;;;;;;;;12.64;54.35;99700.06;4442511;32;35295;-84
2023/04/23 00:21:36;;;;;;;;;;;;;;;12.55;54.56;99707.56;4444705;32;35004;-84
2023/04/23 00:24:04;;;;;;;;;;;;;;;12.70;54.00;99703.22;4443134;32;33672;-85
2023/04/23 00:26:33;;;;;;;;;;;;;;;12.43;54.90;99702.91;4437348;32;32445;-85
2023/04/23 00:29:01;;;;;;;;;;;;;;;12.48;54.48;99700.00;4442589;32;33628;-84
2023/04/23 00:31:28;;;;;;;;;;;;;;;12.39;54.96;99701.38;4441811;32;32873;-85
2023/04/23 00:34:02;;;;;;;;;;;;;;;12.54;54.37;99697.91;4442534;32;34756;-84
2023/04/23 00:36:31;;;;;;;;;;;;;;;12.50;54.29;99699.00;4422368;32;32204;-86
2023/04/23 00:38:59;;;;;;;;;;;;;;;12.40;54.57;99684.53;4435878;32;33023;-86
2023/04/23 00:41:28;;;;;;;;;;;;;;;12.46;54.34;99692.16;4443479;32;34365;-86
2023/04/23 00:43:56;;;;;;;;;;;;;;;12.61;53.84;99689.63;4442064;32;34504;-86
2023/04/23 00:46:25;;;;;;;;;;;;;;;12.59;53.57;99688.87;4441652;32;33016;-86
2023/04/23 00:48:53;;;;;;;;;;;;;;;12.55;53.37;99696.97;4442431;32;33522;-86
2023/04/23 00:51:22;;;;;;;;;;;;;;;12.33;54.14;99691.09;4439467;32;34146;-86
2023/04/23 00:53:50;;;;;;;;;;;;;;;12.20;54.63;99695.28;4427472;32;33987;-86
2023/04/23 00:56:18;;;;;;;;;;;;;;;12.15;54.43;99692.88;4428890;32;32715;-86
2023/04/23 00:58:45;;;;;;;;;;;;;;;12.30;54.23;99701.84;4435606;32;33828;-85
2023/04/23 01:01:14;;;;;;;;;;;;;;;12.28;54.24;99688.69;4444238;32;33515;-85
2023/04/23 01:03:42;;;;;;;;;;;;;;;12.02;54.85;99695.34;4432502;32;33722;-85
2023/04/23 01:06:10;;;;;;;;;;;;;;;12.04;54.64;99687.31;4437754;32;32776;-85
2023/04/23 01:08:38;;;;;;;;;;;;;;;12.21;54.29;99686.44;4414348;32;797832;-85
2023/04/23 01:11:06;;;;;;;;;;;;;;;12.18;54.28;99691.88;4442373;32;33463;-85
2023/04/23 01:13:35;;;;;;;;;;;;;;;12.01;54.74;99690.09;4443187;32;33923;-85
2023/04/23 01:16:03;;;;;;;;;;;;;;;12.00;54.83;99698.97;4442413;32;33305;-85
2023/04/23 01:18:31;;;;;;;;;;;;;;;12.07;54.70;99686.31;4443045;32;34284;-85
2023/04/23 01:21:00;;;;;;;;;;;;;;;12.03;55.01;99681.16;4438762;32;34257;-84
2023/04/23 01:23:29;;;;;;;;;;;;;;;12.03;54.76;99683.81;4443353;32;33033;-85
2023/04/23 01:25:57;;;;;;;;;;;;;;;11.76;55.71;99693.97;4427263;32;33062;-85
2023/04/23 01:28:25;;;;;;;;;;;;;;;12.03;54.84;99694.41;4440191;32;34318;-84
2023/04/23 01:30:52;;;;;;;;;;;;;;;11.92;55.18;99694.09;4443177;32;34564;-84
2023/04/23 01:33:20;;;;;;;;;;;;;;;11.89;55.06;99696.87;4442945;32;31521;-85
2023/04/23 01:35:48;;;;;;;;;;;;;;;11.84;55.17;99688.34;4439837;32;33936;-84
2023/04/23 01:38:17;;;;;;;;;;;;;;;11.78;55.43;99692.12;4441430;32;34068;-84
2023/04/23 01:40:46;;;;;;;;;;;;;;;11.85;55.23;99683.91;4440422;32;35042;-84
2023/04/23 01:43:14;;;;;;;;;;;;;;;11.75;55.26;99689.63;4443487;32;33908;-84
2023/04/23 01:45:43;;;;;;;;;;;;;;;11.57;56.07;99687.03;4442966;32;32933;-84
2023/04/23 01:48:11;;;;;;;;;;;;;;;11.79;55.43;99685.88;4438834;32;34600;-85
2023/04/23 01:50:39;;;;;;;;;;;;;;;11.81;55.33;99688.44;4443447;32;34152;-85
2023/04/23 01:53:07;;;;;;;;;;;;;;;11.65;55.78;99687.50;4442942;32;34973;-84
2023/04/23 01:55:38;;;;;;;;;;;;;;;11.67;55.67;99685.62;4444976;32;32384;-84
2023/04/23 01:58:06;;;;;;;;;;;;;;;11.54;55.79;99688.91;4442376;32;34446;-84
2023/04/23 02:00:34;;;;;;;;;;;;;;;11.61;55.25;99680.66;4442896;32;34142;-84
2023/04/23 02:03:02;;;;;;;;;;;;;;;11.44;56.03;99679.72;4438379;32;34229;-85
2023/04/23 02:05:30;;;;;;;;;;;;;;;11.39;56.09;99675.56;4441026;32;33644;-85
2023/04/23 02:07:57;;;;;;;;;;;;;;;11.42;55.96;99672.78;4435051;32;33603;-85
2023/04/23 02:10:25;;;;;;;;;;;;;;;11.49;55.81;99672.41;4441961;32;35159;-85
2023/04/23 02:12:54;;;;;;;;;;;;;;;11.48;56.02;99670.69;4412616;32;33072;-85
2023/04/23 02:15:21;;;;;;;;;;;;;;;11.48;56.00;99670.69;4443810;32;34077;-85
2023/04/23 02:17:52;;;;;;;;;;;;;;;11.42;55.92;99670.12;4442293;32;32841;-84
2023/04/23 02:20:20;;;;;;;;;;;;;;;11.44;56.00;99677.06;4427901;32;34676;-85
2023/04/23 02:22:48;;;;;;;;;;;;;;;11.31;56.42;99672.47;4430510;32;33887;-86
2023/04/23 02:25:17;;;;;;;;;;;;;;;11.48;55.68;99669.81;4425863;32;33345;-85
2023/04/23 02:27:45;;;;;;;;;;;;;;;11.28;56.02;99668.16;4442439;32;34794;-86
2023/04/23 02:30:12;;;;;;;;;;;;;;;11.30;55.97;99671.59;4444327;32;34095;-86
2023/04/23 02:32:41;;;;;;;;;;;;;;;11.45;55.55;99665.56;4430390;32;34299;-86
2023/04/23 02:35:11;;;;;;;;;;;;;;;11.36;55.84;99663.38;4444502;32;34076;-84
2023/04/23 02:37:39;;;;;;;;;;;;;;;11.37;55.88;99665.06;4430311;32;33220;-84
2023/04/23 02:40:08;;;;;;;;;;;;;;;11.12;56.47;99665.41;4432454;32;33838;-84
2023/04/23 02:42:35;;;;;;;;;;;;;;;11.11;56.75;99665.47;4441155;32;34340;-85
2023/04/23 02:45:04;;;;;;;;;;;;;;;11.18;55.75;99662.47;4417972;32;32837;-85
2023/04/23 02:47:32;;;;;;;;;;;;;;;11.18;56.24;99661.62;4439076;32;36209;-85
2023/04/23 02:50:04;;;;;;;;;;;;;;;11.27;55.99;99663.81;4417458;32;33585;-85
2023/04/23 02:52:32;;;;;;;;;;;;;;;11.32;55.60;99658.31;4430368;32;33940;-84
2023/04/23 02:55:00;;;;;;;;;;;;;;;11.18;55.63;99658.97;4442023;32;32593;-84
2023/04/23 02:57:28;;;;;;;;;;;;;;;11.21;55.64;99661.47;4439466;32;34158;-84
2023/04/23 02:59:57;;;;;;;;;;;;;;;10.96;56.59;99656.50;4441012;32;32748;-83
2023/04/23 03:02:31;;;;;;;;;;;;;;;10.97;56.77;99664.38;4438556;32;33947;-84
2023/04/23 03:04:59;;;;;;;;;;;;;;;10.84;57.04;99660.59;4440997;32;31924;-84
2023/04/23 03:07:27;;;;;;;;;;;;;;;10.87;57.36;99651.63;4431792;32;34851;-83
2023/04/23 03:09:55;;;;;;;;;;;;;;;11.13;56.18;99650.41;4430120;32;33672;-84
2023/04/23 03:12:22;;;;;;;;;;;;;;;10.90;56.47;99657.66;4435468;32;33598;-85
2023/04/23 03:14:50;;;;;;;;;;;;;;;10.89;56.55;99653.28;4436910;32;33287;-85
2023/04/23 03:17:18;;;;;;;;;;;;;;;10.94;56.57;99655.72;4444819;32;34199;-85
2023/04/23 03:19:46;;;;;;;;;;;;;;;10.92;56.79;99657.56;4445291;32;34999;-85
2023/04/23 03:22:14;;;;;;;;;;;;;;;10.91;56.60;99656.72;4442610;32;34800;-85
2023/04/23 03:24:41;;;;;;;;;;;;;;;10.91;56.62;99655.84;4444484;32;32192;-86
2023/04/23 03:27:09;;;;;;;;;;;;;;;10.73;57.38;99657.59;4444245;32;33987;-85
2023/04/23 03:29:38;;;;;;;;;;;;;;;10.68;57.28;99654.28;4432911;32;33280;-85
2023/04/23 03:32:06;;;;;;;;;;;;;;;10.75;57.05;99661.00;4430423;32;33017;-85
2023/04/23 03:34:34;;;;;;;;;;;;;;;10.84;56.83;99657.94;4429974;32;32098;-85
2023/04/23 03:37:02;;;;;;;;;;;;;;;10.95;56.23;99663.56;4441850;32;32821;-86
2023/04/23 03:39:31;;;;;;;;;;;;;;;10.76;56.77;99662.72;4443278;32;34687;-87
2023/04/23 03:42:00;;;;;;;;;;;;;;;10.59;57.53;99658.22;4444474;32;34190;-87
2023/04/23 03:44:29;;;;;;;;;;;;;;;10.81;56.84;99660.72;4430100;32;32606;-87
2023/04/23 03:46:57;;;;;;;;;;;;;;;10.76;56.65;99665.34;4430418;32;33621;-84
2023/04/23 03:49:25;;;;;;;;;;;;;;;10.80;56.77;99661.66;4443391;32;34965;-84
2023/04/23 03:51:54;;;;;;;;;;;;;;;10.69;57.06;99663.94;4421111;32;34185;-84
2023/04/23 03:54:27;;;;;;;;;;;;;;;10.85;56.77;99664.94;4443778;32;31762;-84
2023/04/23 03:56:56;;;;;;;;;;;;;;;10.82;57.07;99657.13;4432057;32;33785;-84
2023/04/23 03:59:26;;;;;;;;;;;;;;;10.63;57.18;99664.22;4434160;32;33489;-84
2023/04/23 04:01:53;;;;;;;;;;;;;;;10.69;56.73;99658.66;4407858;32;33933;-84
2023/04/23 04:04:21;;;;;;;;;;;;;;;10.63;57.04;99670.34;4441813;32;32967;-84
2023/04/23 04:06:50;;;;;;;;;;;;;;;10.81;55.98;99668.63;4432467;32;33178;-83
2023/04/23 04:09:17;;;;;;;;;;;;;;;10.85;56.04;99664.94;4442219;32;34876;-84
2023/04/23 04:11:45;;;;;;;;;;;;;;;10.80;56.30;99677.50;4417362;32;33477;-84
2023/04/23 04:14:15;;;;;;;;;;;;;;;10.81;56.24;99673.91;4445735;32;33310;-83
2023/04/23 04:16:43;;;;;;;;;;;;;;;10.69;57.03;99675.38;4431705;32;32901;-83
2023/04/23 04:19:10;;;;;;;;;;;;;;;10.62;57.49;99673.06;4441153;32;34096;-84
2023/04/23 04:21:38;;;;;;;;;;;;;;;10.73;57.45;99670.81;4430210;32;34508;-84
2023/04/23 04:24:05;;;;;;;;;;;;;;;10.57;58.04;99675.91;4443112;32;33609;-85
2023/04/23 04:26:40;;;;;;;;;;;;;;;10.86;57.34;99679.84;4430224;32;33191;-85
2023/04/23 04:29:09;;;;;;;;;;;;;;;11.02;56.53;99680.84;4444076;32;34568;-85
2023/04/23 04:31:37;;;;;;;;;;;;;;;11.04;56.77;99680.78;4445079;32;33902;-85
2023/04/23 04:34:07;;;;;;;;;;;;;;;11.07;57.08;99687.72;4432770;32;32542;-85
2023/04/23 04:36:36;;;;;;;;;;;;;;;11.14;56.76;99678.53;4443580;32;32694;-84
2023/04/23 04:39:04;;;;;;;;;;;;;;;11.25;56.42;99681.50;4445210;32;34203;-85
2023/04/23 04:41:31;;;;;;;;;;;;;;;11.33;56.03;99687.28;4443243;32;33310;-83
2023/04/23 04:44:01;;;;;;;;;;;;;;;11.29;56.27;99688.37;4427332;32;32448;-86
2023/04/23 04:46:30;;;;;;;;;;;;;;;11.42;56.14;99680.72;4435947;32;33373;-86
2023/04/23 04:48:58;;;;;;;;;;;;;;;11.48;56.31;99686.53;4439546;32;34667;-86
2023/04/23 04:51:32;;;;;;;;;;;;;;;11.56;56.14;99688.81;4442869;32;34141;-84
2023/04/23 04:54:01;;;;;;;;;;;;;;;11.60;55.87;99690.38;4442810;32;33277;-84
2023/04/23 04:56:30;;;;;;;;;;;;;;;11.74;55.55;99687.91;4444068;32;33845;-84
2023/04/23 04:59:00;;;;;;;;;;;;;;;11.80;55.22;99690.22;4443251;32;34227;-84
2023/04/23 05:01:28;;;;;;;;;;;;;;;11.97;54.99;99684.12;4443744;32;34820;-84
2023/04/23 05:03:59;;;;;;;;;;;;;;;12.35;54.27;99686.59;4434170;32;33461;-85
2023/04/23 05:06:27;;;;;;;;;;;;;;;12.42;54.37;99680.00;4430891;32;33098;-85
2023/04/23 05:08:57;;;;;;;;;;;;;;;12.62;54.27;99686.88;4439236;32;34843;-85
2023/04/23 05:11:26;;;;;;;;;;;;;;;12.77;54.06;99682.53;4438373;32;33797;-85
2023/04/23 05:13:59;;;;;;;;;;;;;;;12.87;53.90;99689.06;4426496;32;32706;-85
2023/04/23 05:16:35;;;;;;;;;;;;;;;13.12;52.96;99687.72;4418832;32;33355;-84
2023/04/23 05:19:03;;;;;;;;;;;;;;;13.16;52.96;99692.75;4426616;32;34602;-85
2023/04/23 05:21:31;;;;;;;;;;;;;;;13.12;53.06;99691.22;4441430;32;33085;-84
2023/04/23 05:24:03;;;;;;;;;;;;;;;13.18;53.43;99697.97;4439521;32;33089;-84
2023/04/23 05:29:16;;;;;;;;;;;;;;;13.29;54.09;99691.16;4437241;32;34478;-84
2023/04/23 05:31:45;;;;;;;;;;;;;;;13.38;53.71;99691.56;4430641;32;33891;-84
2023/04/23 05:34:14;;;;;;;;;;;;;;;13.64;52.74;99687.44;4439932;32;33072;-83
2023/04/23 05:36:43;;;;;;;;;;;;;;;13.77;50.47;99691.09;4421660;32;33798;-83
2023/04/23 05:39:12;;;;;;;;;;;;;;;13.79;50.04;99686.53;4442446;32;33930;-84
2023/04/23 05:41:41;;;;;;;;;;;;;;;14.11;48.97;99683.78;4442407;32;32717;-83
2023/04/23 05:44:09;;;;;;;;;;;;;;;14.30;47.79;99682.56;4428606;32;32662;-85
2023/04/23 05:46:39;;;;;;;;;;;;;;;14.69;47.05;99685.53;4432758;32;33175;-84
2023/04/23 05:49:09;;;;;;;;;;;;;;;15.04;46.42;99684.16;4442345;32;34263;-84
2023/04/23 05:51:38;;;;;;;;;;;;;;;15.03;46.50;99679.78;4446503;32;33479;-85
2023/04/23 05:54:09;;;;;;;;;;;;;;;15.32;45.26;99677.06;4429776;32;32774;-84
2023/04/23 05:56:37;;;;;;;;;;;;;;;15.25;45.70;99683.75;4422391;32;33957;-84
2023/04/23 05:59:05;;;;;;;;;;;;;;;15.60;43.65;99687.59;4442563;32;33163;-84
2023/04/23 06:01:35;;;;;;;;;;;;;;;15.56;44.23;99683.44;4442964;32;34393;-84
2023/04/23 06:04:03;;;;;;;;;;;;;;;15.26;44.98;99685.44;4424002;32;32213;-84
2023/04/23 06:06:31;;;;;;;;;;;;;;;15.82;43.83;99686.22;4432023;32;34365;-84
2023/04/23 06:08:59;;;;;;;;;;;;;;;15.55;44.08;99684.38;4440607;32;33264;-84
2023/04/23 06:11:31;;;;;;;;;;;;;;;16.04;43.20;99683.78;4440774;32;34445;-84
2023/04/23 06:14:03;;;;;;;;;;;;;;;16.00;44.19;99692.97;4422289;32;32081;-84
2023/04/23 06:16:35;;;;;;;;;;;;;;;16.24;43.77;99692.25;4443127;32;31764;-84
2023/04/23 06:19:02;;;;;;;;;;;;;;;16.23;43.74;99691.38;4445800;32;33951;-85
2023/04/23 06:21:32;;;;;;;;;;;;;;;16.18;43.67;99692.66;4442335;32;33660;-84
2023/04/23 06:24:08;;;;;;;;;;;;;;;16.71;43.21;99683.59;4443159;32;32058;-84
2023/04/23 06:26:45;;;;;;;;;;;;;;;17.05;42.65;99691.88;4443707;32;35748;-84
2023/04/23 06:29:13;;;;;;;;;;;;;;;16.98;42.50;99688.78;4441382;32;35003;-85
2023/04/23 06:31:42;;;;;;;;;;;;;;;17.00;42.21;99686.88;4443461;32;33738;-84
2023/04/23 06:34:19;;;;;;;;;;;;;;;17.50;40.90;99684.97;4442791;32;33105;-85
2023/04/23 06:36:57;;;;;;;;;;;;;;;17.84;40.21;99687.81;4443491;32;34657;-85
2023/04/23 06:39:31;;;;;;;;;;;;;;;17.79;39.78;99681.97;4442275;32;34985;-85
2023/04/23 06:44:45;;;;;;;;;;;;;;;17.90;39.73;99687.38;4443053;32;32625;-84
2023/04/23 06:47:16;;;;;;;;;;;;;;;18.03;39.99;99693.47;4443791;32;32846;-85
2023/04/23 06:49:45;;;;;;;;;;;;;;;18.01;42.24;99692.75;4442489;32;34197;-85
2023/04/23 06:52:13;;;;;;;;;;;;;;;17.98;40.58;99689.47;4445175;32;34646;-85
2023/04/23 06:54:44;;;;;;;;;;;;;;;18.22;39.61;99679.56;4443076;32;32517;-85
2023/04/23 06:57:20;;;;;;;;;;;;;;;18.72;39.11;99685.47;4427953;32;34704;-85
2023/04/23 06:59:50;;;;;;;;;;;;;;;18.56;38.63;99684.94;4441618;32;34203;-84
2023/04/23 07:02:21;;;;;;;;;;;;;;;18.66;38.04;99681.44;4427859;32;33306;-84
2023/04/23 07:04:51;;;;;;;;;;;;;;;18.82;37.52;99669.56;4429186;32;33055;-84
2023/04/23 07:07:20;;;;;;;;;;;;;;;19.32;36.69;99668.16;4434253;32;33584;-85
2023/04/23 07:09:51;;;;;;;;;;;;;;;19.73;37.23;99665.72;4444452;32;33724;-84
2023/04/23 07:12:21;;;;;;;;;;;;;;;20.01;36.78;99659.72;4430220;32;33265;-84
2023/04/23 07:14:52;;;;;;;;;;;;;;;19.89;36.50;99671.47;4447620;32;33591;-85
2023/04/23 07:17:24;;;;;;;;;;;;;;;19.59;36.44;99662.31;4446190;32;33808;-85
2023/04/23 07:19:53;;;;;;;;;;;;;;;19.97;36.94;99666.31;4442151;32;34190;-85
2023/04/23 07:22:20;;;;;;;;;;;;;;;20.39;34.86;99660.94;4446047;32;33488;-85
2023/04/23 07:24:58;;;;;;;;;;;;;;;20.28;34.67;99667.22;4444835;32;32685;-86
2023/04/23 07:27:31;;;;;;;;;;;;;;;20.51;35.83;99657.25;4445852;32;34414;-85
2023/04/23 07:30:04;;;;;;;;;;;;;;;20.21;32.48;99653.50;4446013;32;33610;-85
2023/04/23 07:32:38;;;;;;;;;;;;;;;20.40;31.97;99658.09;4445863;32;33535;-85
2023/04/23 07:35:14;;;;;;;;;;;;;;;20.60;31.23;99644.81;4437020;32;34489;-85
2023/04/23 07:37:46;;;;;;;;;;;;;;;20.79;31.29;99649.41;4444464;32;34567;-87
2023/04/23 07:40:22;;;;;;;;;;;;;;;20.68;30.93;99655.75;4442992;32;34982;-90
2023/04/23 07:43:01;;;;;;;;;;;;;;;20.44;30.90;99653.34;4436525;32;36249;-87
2023/04/23 07:45:33;;;;;;;;;;;;;;;21.13;31.00;99653.50;4433168;32;32825;-86
2023/04/23 07:48:05;;;;;;;;;;;;;;;21.44;29.02;99656.94;4426668;32;34909;-86
2023/04/23 07:50:38;;;;;;;;;;;;;;;21.41;29.47;99656.38;4444225;32;32892;-86
2023/04/23 07:53:05;;;;;;;;;;;;;;;20.97;29.00;99658.53;4444974;32;34374;-86
2023/04/23 07:55:32;;;;;;;;;;;;;;;21.78;29.33;99653.84;4446132;32;33950;-87
2023/04/23 07:58:00;;;;;;;;;;;;;;;21.22;28.09;99658.03;4445917;32;32916;-86
2023/04/23 08:00:30;;;;;;;;;;;;;;;21.16;27.98;99655.88;4440851;32;34782;-87
2023/04/23 08:03:06;;;;;;;;;;;;;;;21.60;28.46;99652.84;4444812;32;34119;-86
2023/04/23 08:05:39;;;;;;;;;;;;;;;21.73;28.80;99662.34;4446642;32;33985;-87
2023/04/23 08:08:13;;;;;;;;;;;;;;;22.24;28.23;99649.59;4433518;32;33749;-86
2023/04/23 08:10:42;;;;;;;;;;;;;;;21.95;28.90;99646.91;4420392;32;34943;-86
2023/04/23 08:13:21;;;;;;;;;;;;;;;22.28;28.78;99644.78;4434354;32;34572;-88
2023/04/23 08:15:52;;;;;;;;;;;;;;;22.56;27.67;99642.97;4421186;32;32245;-88
2023/04/23 08:18:26;;;;;;;;;;;;;;;22.41;27.97;99645.31;4440258;32;33880;-88
2023/04/23 08:20:58;;;;;;;;;;;;;;;22.56;27.73;99643.81;4440733;32;34525;-88
2023/04/23 08:23:28;;;;;;;;;;;;;;;22.86;27.86;99631.94;4415409;32;33969;-88
2023/04/23 08:25:56;;;;;;;;;;;;;;;22.85;27.29;99634.78;4443519;32;33216;-88
2023/04/23 08:28:26;;;;;;;;;;;;;;;22.59;28.36;99642.66;4429036;32;34027;-89
2023/04/23 08:31:02;;;;;;;;;;;;;;;22.84;27.79;99631.25;4440555;32;35840;-88
2023/04/23 08:36:34;;;;;;;;;;;;;;;22.70;28.99;99637.97;4442087;32;33387;-88
2023/04/23 08:39:02;;;;;;;;;;;;;;;22.90;27.41;99627.97;4429043;32;33975;-88
2023/04/23 08:41:33;;;;;;;;;;;;;;;23.00;27.22;99625.22;4441097;32;34186;-87
2023/04/23 08:44:07;;;;;;;;;;;;;;;22.83;27.49;99634.06;4428953;32;33931;-90
2023/04/23 08:46:37;;;;;;;;;;;;;;;22.72;28.04;99635.97;4440033;32;32313;-89
2023/04/23 08:49:14;;;;;;;;;;;;;;;23.20;27.79;99632.19;4416799;32;32864;-90
2023/04/23 08:52:16;;;;;;;;;;;;;;;23.02;27.54;99623.22;4423727;32;32628;-90
2023/04/23 08:54:47;;;;;;;;;;;;;;;23.24;27.04;99620.09;4445359;32;33259;-90
2023/04/23 08:57:25;;;;;;;;;;;;;;;23.55;28.17;99617.06;4438217;32;32209;-90
2023/04/23 08:59:55;;;;;;;;;;;;;;;23.64;27.53;99617.97;4442220;32;34512;-90
2023/04/23 09:02:24;;;;;;;;;;;;;;;23.94;26.80;99614.03;4429758;32;33393;-90
2023/04/23 09:04:53;;;;;;;;;;;;;;;24.10;26.21;99614.13;4418307;32;33792;-90
2023/04/23 09:07:26;;;;;;;;;;;;;;;23.84;27.46;99624.06;4433149;32;33020;-90
2023/04/23 09:10:02;;;;;;;;;;;;;;;24.16;26.24;99602.69;4441400;32;34297;-89
2023/04/23 09:12:41;;;;;;;;;;;;;;;24.51;26.44;99601.75;4445675;32;34041;-89
2023/04/23 09:15:10;;;;;;;;;;;;;;;24.61;25.99;99598.94;4433017;32;32901;-89
2023/04/23 09:17:42;;;;;;;;;;;;;;;24.71;26.04;99602.34;4436471;32;33277;-89
2023/04/23 09:20:18;;;;;;;;;;;;;;;24.33;24.39;99603.66;4445409;32;33768;-90
2023/04/23 09:22:48;;;;;;;;;;;;;;;24.47;24.09;99595.00;4435928;32;33115;-90
2023/04/23 09:25:23;;;;;;;;;;;;;;;24.64;25.04;99598.63;4439064;32;33528;-89
2023/04/23 09:27:54;;;;;;;;;;;;;;;24.34;24.94;99596.41;4446592;32;33178;-90
2023/04/23 09:30:26;;;;;;;;;;;;;;;24.10;24.86;99597.09;4438980;32;34256;-90
2023/04/23 09:32:58;;;;;;;;;;;;;;;24.71;24.86;99591.56;4434472;32;34067;-90
2023/04/23 09:35:42;;;;;;;;;;;;;;;24.85;23.82;99586.53;4446662;32;33320;-90
2023/04/23 09:38:17;;;;;;;;;;;;;;;25.06;24.18;99589.63;4444364;32;32000;-90
2023/04/23 09:40:45;;;;;;;;;;;;;;;25.26;23.50;99587.53;4432591;32;33924;-90
2023/04/23 09:43:14;;;;;;;;;;;;;;;24.70;22.96;99591.72;4435401;32;33116;-90
2023/04/23 09:45:49;;;;;;;;;;;;;;;25.05;23.00;99590.66;4432996;32;33394;-90
2023/04/23 09:48:20;;;;;;;;;;;;;;;25.22;23.04;99588.87;4437688;32;34026;-90
2023/04/23 09:51:03;;;;;;;;;;;;;;;25.20;22.08;99586.31;4434069;32;34026;-91
2023/04/23 09:53:43;;;;;;;;;;;;;;;25.08;22.79;99587.66;4444624;32;34111;-90
2023/04/23 09:56:20;;;;;;;;;;;;;;;25.02;21.63;99577.50;4434552;32;33580;-90
2023/04/23 09:58:50;;;;;;;;;;;;;;;24.37;22.83;99593.44;4432027;32;31922;-90
2023/04/23 10:01:29;;;;;;;;;;;;;;;25.26;22.06;99582.97;4444023;32;34322;-91
2023/04/23 10:04:05;;;;;;;;;;;;;;;25.04;22.72;99575.47;4437299;32;33533;-90
2023/04/23 10:06:43;;;;;;;;;;;;;;;25.05;23.76;99577.13;4441957;32;36586;-91
2023/04/23 10:09:38;;;;;;;;;;;;;;;25.02;22.50;99574.78;4430524;32;33312;-90
2023/04/23 10:12:09;;;;;;;;;;;;;;;25.04;22.58;99570.06;4440219;32;33384;-91
2023/04/23 10:14:45;;;;;;;;;;;;;;;24.68;23.17;99564.88;4422732;32;34262;-91
2023/04/23 10:17:16;;;;;;;;;;;;;;;25.26;23.05;99553.25;4426084;32;33289;-90
2023/04/23 10:19:48;;;;;;;;;;;;;;;25.85;22.62;99552.25;4433894;32;33196;-91
2023/04/23 10:22:28;;;;;;;;;;;;;;;25.53;22.09;99551.22;4413552;32;32939;-90
2023/04/23 10:24:59;;;;;;;;;;;;;;;25.32;21.76;99553.59;4430609;32;33087;-91
2023/04/23 10:27:55;;;;;;;;;;;;;;;25.47;21.83;99541.09;4444086;32;34942;-90
2023/04/23 10:30:29;;;;;;;;;;;;;;;25.97;21.53;99545.44;4446037;32;33261;-91
2023/04/23 10:33:00;;;;;;;;;;;;;;;25.83;20.14;99532.62;4447109;32;34146;-90
2023/04/23 10:35:36;;;;;;;;;;;;;;;26.61;18.75;99531.91;4448033;32;34279;-91
2023/04/23 10:38:31;;;;;;;;;;;;;;;26.43;18.92;99537.56;4441018;32;34319;-90
2023/04/23 10:41:02;;;;;;;;;;;;;;;26.18;18.53;99537.63;4441743;32;32996;-90
2023/04/23 10:43:40;;;;;;;;;;;;;;;25.94;17.45;99538.53;4444281;32;35790;-91
2023/04/23 10:46:28;;;;;;;;;;;;;;;25.49;19.40;99536.34;4428122;32;34931;-89
2023/04/23 10:49:07;;;;;;;;;;;;;;;26.36;18.45;99528.44;4431514;32;32600;-90
2023/04/23 10:51:38;;;;;;;;;;;;;;;26.03;18.79;99529.37;4447314;32;33398;-90
2023/04/23 10:54:14;;;;;;;;;;;;;;;26.38;18.25;99523.69;4420159;32;34015;-90
2023/04/23 10:56:49;;;;;;;;;;;;;;;26.50;18.43;99519.63;4444627;32;34795;-90
2023/04/23 10:59:25;;;;;;;;;;;;;;;26.15;18.67;99519.03;4445000;32;33775;-91
2023/04/23 11:01:56;;;;;;;;;;;;;;;26.65;17.64;99517.84;4433793;32;33163;-90
2023/04/23 11:04:28;;;;;;;;;;;;;;;26.29;17.24;99525.59;4433365;32;32809;-91
2023/04/23 11:07:09;;;;;;;;;;;;;;;25.88;16.79;99535.69;4436986;32;33168;-90
2023/04/23 11:09:52;;;;;;;;;;;;;;;26.15;16.16;99524.44;4445820;32;34058;-90
2023/04/23 11:12:25;;;;;;;;;;;;;;;26.62;16.24;99515.50;4442884;32;32486;-90
2023/04/23 11:17:53;;;;;;;;;;;;;;;25.78;16.06;99523.19;4432894;32;34617;-90
2023/04/23 11:20:28;;;;;;;;;;;;;;;26.16;16.64;99511.75;4445176;32;33687;-90
2023/04/23 11:22:57;;;;;;;;;;;;;;;26.05;16.83;99515.69;4417336;32;32625;-90
2023/04/23 11:25:26;;;;;;;;;;;;;;;26.40;16.87;99518.97;4432632;32;33110;-90
2023/04/23 11:28:02;;;;;;;;;;;;;;;26.48;16.88;99505.41;4421308;32;33520;-90
2023/04/23 11:33:12;;;;;;;;;;;;;;;26.10;16.86;99513.28;4441887;32;32990;-90
2023/04/23 11:35:47;;;;;;;;;;;;;;;26.17;17.55;99503.47;4442006;32;33889;-90
2023/04/23 11:38:19;;;;;;;;;;;;;;;26.52;17.56;99506.75;4431703;32;33647;-90
2023/04/23 11:40:52;;;;;;;;;;;;;;;26.69;16.80;99497.53;4431076;32;33509;-91
2023/04/23 11:43:22;;;;;;;;;;;;;;;26.72;17.34;99502.56;4444247;32;33919;-90
2023/04/23 11:45:51;;;;;;;;;;;;;;;26.58;17.97;99505.19;4425164;32;33108;-90
2023/04/23 11:48:22;;;;;;;;;;;;;;;26.94;16.85;99500.06;4424501;32;34261;-89
2023/04/23 11:50:55;;;;;;;;;;;;;;;26.66;16.94;99491.59;4438434;32;33278;-88
2023/04/23 11:53:25;;;;;;;;;;;;;;;26.22;16.56;99492.97;4445122;32;33082;-88
2023/04/23 11:58:30;;;;;;;;;;;;;;;26.17;17.50;99484.53;4431460;32;34574;-88
2023/04/23 12:03:47;;;;;;;;;;;;;;;26.23;18.33;99486.53;4440149;32;33629;-88
2023/04/23 12:06:18;;;;;;;;;;;;;;;26.60;17.36;99481.50;4416946;32;33502;-89
2023/04/23 12:08:49;;;;;;;;;;;;;;;26.78;17.46;99472.06;4420830;32;33173;-89
2023/04/23 12:11:23;;;;;;;;;;;;;;;26.87;16.72;99478.28;4394021;32;33165;-88
2023/04/23 12:13:52;;;;;;;;;;;;;;;26.40;17.88;99465.66;4424205;32;32579;-88
2023/04/23 12:16:32;;;;;;;;;;;;;;;26.62;17.93;99469.44;4427064;32;34904;-87
2023/04/23 12:19:00;;;;;;;;;;;;;;;26.52;18.20;99469.69;4418342;32;33781;-86
2023/04/23 12:21:33;;;;;;;;;;;;;;;26.98;18.61;99469.72;4426846;32;34698;-87
2023/04/23 12:24:04;;;;;;;;;;;;;;;26.80;18.00;99463.75;4410894;32;33448;-87
2023/04/23 12:26:33;;;;;;;;;;;;;;;26.73;18.02;99455.53;4412330;32;33919;-88
2023/04/23 12:29:02;;;;;;;;;;;;;;;27.00;18.29;99456.00;4426013;32;34383;-87
2023/04/23 12:31:38;;;;;;;;;;;;;;;27.16;18.82;99449.66;4422656;32;35774;-87
2023/04/23 12:34:08;;;;;;;;;;;;;;;26.59;18.35;99464.41;4402816;32;32169;-86
2023/04/23 12:36:39;;;;;;;;;;;;;;;26.20;19.28;99459.81;4418549;32;32480;-88
2023/04/23 12:39:21;;;;;;;;;;;;;;;26.38;18.03;99456.00;4424449;32;34192;-87
2023/04/23 12:41:55;;;;;;;;;;;;;;;26.76;18.66;99446.19;4416382;32;33468;-87
2023/04/23 12:44:25;;;;;;;;;;;;;;;26.07;17.99;99450.59;4425806;32;34050;-87
2023/04/23 12:47:13;;;;;;;;;;;;;;;26.08;17.99;99444.16;4426851;32;34087;-88
2023/04/23 12:49:45;;;;;;;;;;;;;;;26.60;17.59;99444.44;4419240;32;33526;-88
2023/04/23 12:52:16;;;;;;;;;;;;;;;26.24;17.60;99435.94;4427066;32;35004;-88
2023/04/23 12:54:45;;;;;;;;;;;;;;;26.98;17.18;99429.09;4427500;32;34721;-87
2023/04/23 12:57:21;;;;;;;;;;;;;;;27.12;18.19;99432.91;4420127;32;34170;-88
2023/04/23 12:59:51;;;;;;;;;;;;;;;26.91;17.76;99424.56;4427781;32;34303;-87
2023/04/23 13:02:22;;;;;;;;;;;;;;;27.26;18.77;99423.97;4425354;32;33093;-87
2023/04/23 13:04:50;;;;;;;;;;;;;;;27.37;17.06;99414.53;4433927;32;33236;-88
2023/04/23 13:07:22;;;;;;;;;;;;;;;27.21;17.26;99423.69;4423249;32;33540;-87
2023/04/23 13:09:50;;;;;;;;;;;;;;;26.81;17.28;99413.97;4445843;32;34068;-88
2023/04/23 13:12:20;;;;;;;;;;;;;;;27.40;17.07;99410.62;4432016;32;33359;-88
2023/04/23 13:14:52;;;;;;;;;;;;;;;27.12;17.64;99405.81;4432478;32;34008;-88
2023/04/23 13:17:25;;;;;;;;;;;;;;;27.53;17.52;99397.25;4446199;32;33380;-88
2023/04/23 13:22:41;;;;;;;;;;;;;;;27.48;17.06;99394.25;4442608;32;33171;-88
2023/04/23 13:25:16;;;;;;;;;;;;;;;26.96;16.93;99395.91;4435167;32;31845;-88
2023/04/23 13:27:45;;;;;;;;;;;;;;;27.21;16.76;99393.88;4446800;32;33932;-88
2023/04/23 13:30:16;;;;;;;;;;;;;;;27.54;17.39;99388.12;4438907;32;34497;-88